createdAt,value
2024-02-12T00:00:00.840Z,17.27
2024-02-12T00:02:29.860Z,17.23
2024-02-12T00:04:57.360Z,17.30
2024-02-12T00:07:24.629Z,16.30
2024-02-12T00:09:51.834Z,16.30
2024-02-12T00:12:18.880Z,15.52
2024-02-12T00:14:47.029Z,16.77
2024-02-12T00:17:16.410Z,15.15
2024-02-12T00:19:44.422Z,15.02
2024-02-12T00:22:11.398Z,15.05
2024-02-12T00:24:38.694Z,14.52
2024-02-12T00:27:08.753Z,13.60
2024-02-12T00:29:36.303Z,14.18
2024-02-12T00:32:05.125Z,14.18
2024-02-12T00:34:35.030Z,14.57
2024-02-12T00:37:02.380Z,14.63
2024-02-12T00:39:32.168Z,13.88
2024-02-12T00:41:59.679Z,14.88
2024-02-12T00:44:26.683Z,13.98
2024-02-12T00:46:56.478Z,14.10
2024-02-12T00:49:24.906Z,15.20
2024-02-12T00:51:52.793Z,14.55
2024-02-12T00:54:20.118Z,15.10
2024-02-12T00:56:48.611Z,14.60
2024-02-12T00:59:18.984Z,14.98
2024-02-12T01:01:46.839Z,14.93
2024-02-12T01:04:14.364Z,15.35
2024-02-12T01:06:41.773Z,14.73
2024-02-12T01:09:12.890Z,15.32
2024-02-12T01:11:41.697Z,14.63
2024-02-12T01:14:08.822Z,14.52
2024-02-12T01:16:36.443Z,14.93
2024-02-12T01:19:04.240Z,14.38
2024-02-12T01:21:35.190Z,15.32
2024-02-12T01:24:02.907Z,13.90
2024-02-12T01:26:32.509Z,14.63
2024-02-12T01:28:59.516Z,14.20
2024-02-12T01:31:26.568Z,14.35
2024-02-12T01:33:54.008Z,15.25
2024-02-12T01:36:21.377Z,14.73
2024-02-12T01:38:48.327Z,15.65
2024-02-12T01:41:18.195Z,16.02
2024-02-12T01:43:45.691Z,14.63
2024-02-12T01:46:12.789Z,15.85
2024-02-12T01:48:40.132Z,15.13
2024-02-12T01:51:08.848Z,15.60
2024-02-12T01:53:38.153Z,15.52
2024-02-12T01:56:12.132Z,16.50
2024-02-12T01:58:42.355Z,14.95
2024-02-12T02:01:16.056Z,16.02
2024-02-12T02:03:44.706Z,15.48
2024-02-12T02:06:14.580Z,15.77
2024-02-12T02:08:43.342Z,16.52
2024-02-12T02:11:11.941Z,15.60
2024-02-12T02:13:44.508Z,16.88
2024-02-12T02:16:18.151Z,15.57
2024-02-12T02:21:24.244Z,15.43
2024-02-12T02:23:52.750Z,15.95
2024-02-12T02:26:20.557Z,15.90
2024-02-12T02:28:47.788Z,15.98
2024-02-12T02:31:14.727Z,16.52
2024-02-12T02:33:42.142Z,16.65
2024-02-12T02:36:09.466Z,16.85
2024-02-12T02:38:36.776Z,16.92
2024-02-12T02:41:04.902Z,16.20
2024-02-12T02:43:33.036Z,15.63
2024-02-12T02:46:00.819Z,16.75
2024-02-12T02:48:33.754Z,16.50
2024-02-12T02:51:01.683Z,16.52
2024-02-12T02:53:28.998Z,17.65
2024-02-12T02:55:56.073Z,16.67
2024-02-12T02:58:23.142Z,16.58
2024-02-12T03:00:50.178Z,17.10
2024-02-12T03:03:17.676Z,16.70
2024-02-12T03:05:45.068Z,17.27
2024-02-12T03:08:12.682Z,17.33
2024-02-12T03:10:39.910Z,16.77
2024-02-12T03:13:07.063Z,16.55
2024-02-12T03:15:37.516Z,16.58
2024-02-12T03:18:06.541Z,16.83
2024-02-12T03:20:34.299Z,17.17
2024-02-12T03:23:01.564Z,17.55
2024-02-12T03:25:28.698Z,16.42
2024-02-12T03:27:55.588Z,16.98
2024-02-12T03:30:24.178Z,17.55
2024-02-12T03:32:51.361Z,17.35
2024-02-12T03:35:18.480Z,16.92
2024-02-12T03:37:45.548Z,17.30
2024-02-12T03:40:14.917Z,17.23
2024-02-12T03:42:41.913Z,17.70
2024-02-12T03:45:10.292Z,17.88
2024-02-12T03:47:41.202Z,17.75
2024-02-12T03:50:35.171Z,17.17
2024-02-12T03:53:31.899Z,17.92
2024-02-12T03:56:17.277Z,17.67
2024-02-12T03:59:02.688Z,17.00
2024-02-12T04:01:29.775Z,16.88
2024-02-12T04:03:56.743Z,17.23
2024-02-12T04:06:26.315Z,18.23
2024-02-12T04:08:53.795Z,17.33
2024-02-12T04:11:21.040Z,16.48
2024-02-12T04:13:48.603Z,16.83
2024-02-12T04:16:16.095Z,17.80
2024-02-12T04:18:43.949Z,17.17
2024-02-12T04:21:11.271Z,18.15
2024-02-12T04:23:41.162Z,19.67
2024-02-12T04:26:10.161Z,17.42
2024-02-12T04:28:41.322Z,17.95
2024-02-12T04:31:08.882Z,18.15
2024-02-12T04:33:36.236Z,18.40
2024-02-12T04:36:03.670Z,19.02
2024-02-12T04:38:34.891Z,18.30
2024-02-12T04:41:03.043Z,19.33
2024-02-12T04:43:30.279Z,20.17
2024-02-12T04:45:57.667Z,19.88
2024-02-12T04:48:25.409Z,18.25
2024-02-12T04:50:52.858Z,18.92
2024-02-12T04:53:20.025Z,18.85
2024-02-12T04:55:47.182Z,18.92
2024-02-12T04:58:14.259Z,18.60
2024-02-12T05:00:41.569Z,19.67
2024-02-12T05:03:09.409Z,18.58
2024-02-12T05:05:36.827Z,18.33
2024-02-12T05:08:05.702Z,19.05
2024-02-12T05:10:33.116Z,18.83
2024-02-12T05:13:01.213Z,18.45
2024-02-12T05:15:28.296Z,17.67
2024-02-12T05:18:08.566Z,16.27
2024-02-12T05:20:56.893Z,16.42
2024-02-12T05:23:24.131Z,17.13
2024-02-12T05:25:51.209Z,16.25
2024-02-12T05:28:18.979Z,15.45
2024-02-12T05:30:46.615Z,15.18
2024-02-12T05:33:13.725Z,15.32
2024-02-12T05:35:41.977Z,15.20
2024-02-12T05:38:10.418Z,14.38
2024-02-12T05:40:39.304Z,14.27
2024-02-12T05:43:06.349Z,13.60
2024-02-12T05:45:33.353Z,14.30
2024-02-12T05:48:00.488Z,13.30
2024-02-12T05:50:28.178Z,12.45
2024-02-12T05:52:55.355Z,11.70
2024-02-12T05:55:23.279Z,12.02
2024-02-12T05:57:50.374Z,11.90
2024-02-12T06:00:18.039Z,12.35
2024-02-12T06:02:45.080Z,10.38
2024-02-12T06:05:12.460Z,10.88
2024-02-12T06:07:41.935Z,10.35
2024-02-12T06:10:09.407Z,10.85
2024-02-12T06:12:36.512Z,10.25
2024-02-12T06:15:03.556Z,9.50
2024-02-12T06:17:30.544Z,9.23
2024-02-12T06:19:57.707Z,8.93
2024-02-12T06:22:24.746Z,9.40
2024-02-12T06:24:51.732Z,8.07
2024-02-12T06:27:18.781Z,8.95
2024-02-12T06:29:45.775Z,8.77
2024-02-12T06:32:16.552Z,9.20
2024-02-12T06:34:47.362Z,8.80
2024-02-12T06:37:16.184Z,9.38
2024-02-12T06:39:43.842Z,8.35
2024-02-12T06:42:11.254Z,9.32
2024-02-12T06:44:38.353Z,9.27
2024-02-12T06:47:05.851Z,8.70
2024-02-12T06:49:32.850Z,9.48
2024-02-12T06:52:01.174Z,9.38
2024-02-12T06:54:28.221Z,10.27
2024-02-12T06:56:55.297Z,9.30
2024-02-12T06:59:22.578Z,9.48
2024-02-12T07:01:49.566Z,9.20
2024-02-12T07:04:16.583Z,9.65
2024-02-12T07:06:44.415Z,9.60
2024-02-12T07:09:11.575Z,9.65
2024-02-12T07:11:39.461Z,9.77
2024-02-12T07:14:06.613Z,9.93
2024-02-12T07:16:33.842Z,9.50
2024-02-12T07:19:01.245Z,9.63
2024-02-12T07:21:28.535Z,9.27
2024-02-12T07:23:55.706Z,9.27
2024-02-12T07:26:23.064Z,8.30
2024-02-12T07:28:52.877Z,8.45
2024-02-12T07:31:20.077Z,8.35
2024-02-12T07:33:47.179Z,7.75
2024-02-12T07:36:14.293Z,7.30
2024-02-12T07:38:41.887Z,7.57
2024-02-12T07:41:10.281Z,7.25
2024-02-12T07:43:37.526Z,6.75
2024-02-12T07:46:06.045Z,7.18
2024-02-12T07:48:33.230Z,6.97
2024-02-12T07:51:00.365Z,6.85
2024-02-12T07:53:30.921Z,5.63
2024-02-12T07:55:58.470Z,5.60
2024-02-12T07:58:28.242Z,6.65
2024-02-12T08:00:55.372Z,6.43
2024-02-12T08:03:22.499Z,5.75
2024-02-12T08:05:50.981Z,6.03
2024-02-12T08:08:18.702Z,6.65
2024-02-12T08:10:47.418Z,5.30
2024-02-12T08:13:15.173Z,5.60
2024-02-12T08:15:43.469Z,6.15
2024-02-12T08:18:11.218Z,5.18
2024-02-12T08:20:38.489Z,5.78
2024-02-12T08:23:05.928Z,5.10
2024-02-12T08:25:33.162Z,5.65
2024-02-12T08:28:00.141Z,5.38
2024-02-12T08:30:27.377Z,5.65
2024-02-12T08:32:54.732Z,5.15
2024-02-12T08:35:22.421Z,4.97
2024-02-12T08:37:49.682Z,5.38
2024-02-12T08:40:18.135Z,5.68
2024-02-12T08:42:48.824Z,5.57
2024-02-12T08:45:16.076Z,5.38
2024-02-12T08:47:43.526Z,5.28
2024-02-12T08:50:14.360Z,4.68
2024-02-12T08:52:41.670Z,4.65
2024-02-12T08:55:13.038Z,4.70
2024-02-12T08:57:43.402Z,5.43
2024-02-12T09:00:12.358Z,5.18
2024-02-12T09:02:40.036Z,5.13
2024-02-12T09:05:12.718Z,5.20
2024-02-12T09:07:41.122Z,5.30
2024-02-12T09:10:10.480Z,5.40
2024-02-12T09:12:51.491Z,6.78
2024-02-12T09:15:21.200Z,4.45
2024-02-12T09:17:49.330Z,5.60
2024-02-12T09:20:17.311Z,4.93
2024-02-12T09:22:45.294Z,5.90
2024-02-12T09:25:13.993Z,4.75
2024-02-12T09:27:47.206Z,5.13
2024-02-12T09:32:46.150Z,5.15
2024-02-12T09:35:16.441Z,5.10
2024-02-12T09:37:43.576Z,5.70
2024-02-12T09:40:12.724Z,5.05
2024-02-12T09:42:41.976Z,4.60
2024-02-12T09:45:12.965Z,5.30
2024-02-12T09:47:45.327Z,5.57
2024-02-12T09:50:14.979Z,5.75
2024-02-12T09:52:45.097Z,5.85
2024-02-12T09:55:14.446Z,5.18
2024-02-12T09:57:42.551Z,5.70
2024-02-12T10:00:12.028Z,6.28
2024-02-12T10:02:42.745Z,6.65
2024-02-12T10:05:19.021Z,5.47
2024-02-12T10:07:47.509Z,7.22
2024-02-12T10:10:16.224Z,6.18
2024-02-12T10:12:43.598Z,6.50
2024-02-12T10:15:15.146Z,6.72
2024-02-12T10:17:44.438Z,5.90
2024-02-12T10:20:11.715Z,6.82
2024-02-12T10:22:42.384Z,6.53
2024-02-12T10:25:12.645Z,5.20
2024-02-12T10:27:40.980Z,5.43
2024-02-12T10:30:08.896Z,5.32
2024-02-12T10:32:36.602Z,5.47
2024-02-12T10:35:08.723Z,4.68
2024-02-12T10:37:38.942Z,4.22
2024-02-12T10:40:14.304Z,4.93
2024-02-12T10:42:51.401Z,3.92
2024-02-12T10:45:19.287Z,3.92
2024-02-12T10:47:46.956Z,3.60
2024-02-12T10:50:15.109Z,3.80
2024-02-12T10:52:43.881Z,3.90
2024-02-12T10:55:11.764Z,4.55
2024-02-12T10:57:45.340Z,3.55
2024-02-12T11:02:49.206Z,3.38
2024-02-12T11:05:19.126Z,3.60
2024-02-12T11:07:46.777Z,3.40
2024-02-12T11:10:20.174Z,4.72
2024-02-12T11:12:48.699Z,3.30
2024-02-12T11:15:25.901Z,3.95
2024-02-12T11:17:53.245Z,3.35
2024-02-12T11:20:22.669Z,3.38
2024-02-12T11:22:50.617Z,3.92
2024-02-12T11:25:23.303Z,4.13
2024-02-12T11:27:54.208Z,4.03
2024-02-12T11:30:21.836Z,4.05
2024-02-12T11:32:50.025Z,4.50
2024-02-12T11:35:20.155Z,3.28
2024-02-12T11:37:47.558Z,3.75
2024-02-12T11:40:20.115Z,3.40
2024-02-12T11:42:51.203Z,3.30
2024-02-12T11:45:27.723Z,3.10
2024-02-12T11:48:07.793Z,3.00
2024-02-12T11:50:36.281Z,4.10
2024-02-12T11:53:03.427Z,2.83
2024-02-12T11:55:30.550Z,4.20
2024-02-12T11:57:59.650Z,3.20
2024-02-12T12:00:27.059Z,2.78
2024-02-12T12:02:56.554Z,2.60
2024-02-12T12:05:28.364Z,2.60
2024-02-12T12:08:00.413Z,2.67
2024-02-12T12:10:29.959Z,2.28
2024-02-12T12:13:01.796Z,2.33
2024-02-12T12:15:30.384Z,3.30
2024-02-12T12:18:01.779Z,2.95
2024-02-12T12:20:31.674Z,2.53
2024-02-12T12:23:05.262Z,2.45
2024-02-12T12:25:32.796Z,2.97
2024-02-12T12:27:59.994Z,2.55
2024-02-12T12:30:27.988Z,3.30
2024-02-12T12:32:55.620Z,2.25
2024-02-12T12:35:23.231Z,2.85
2024-02-12T12:37:52.350Z,3.05
2024-02-12T12:40:20.639Z,3.03
2024-02-12T12:42:49.442Z,2.25
2024-02-12T12:45:17.509Z,2.60
2024-02-12T12:47:45.271Z,2.20
2024-02-12T12:50:15.742Z,2.33
2024-02-12T12:52:43.667Z,2.35
2024-02-12T12:55:15.541Z,2.00
2024-02-12T12:57:47.391Z,1.98
2024-02-12T13:00:22.760Z,2.33
2024-02-12T13:02:59.965Z,2.25
2024-02-12T13:05:27.109Z,2.08
2024-02-12T13:08:17.390Z,2.20
2024-02-12T13:10:46.089Z,2.08
2024-02-12T13:13:15.402Z,2.13
2024-02-12T13:15:47.596Z,2.20
2024-02-12T13:18:19.493Z,2.15
2024-02-12T13:20:49.149Z,2.05
2024-02-12T13:23:19.487Z,1.77
2024-02-12T13:25:48.190Z,1.85
2024-02-12T13:28:17.889Z,2.42
2024-02-12T13:30:48.712Z,2.53
2024-02-12T13:33:18.182Z,2.00
2024-02-12T13:35:46.881Z,1.75
2024-02-12T13:38:17.101Z,1.55
2024-02-12T13:40:44.295Z,1.95
2024-02-12T13:43:13.439Z,2.00
2024-02-12T13:45:43.198Z,1.48
2024-02-12T13:48:10.773Z,1.80
2024-02-12T13:50:39.330Z,2.03
2024-02-12T13:53:08.122Z,1.70
2024-02-12T13:55:36.421Z,2.47
2024-02-12T13:58:04.471Z,1.90
2024-02-12T14:03:03.761Z,2.10
2024-02-12T14:05:31.656Z,1.65
2024-02-12T14:07:58.937Z,1.70
2024-02-12T14:10:28.154Z,1.70
2024-02-12T14:12:55.819Z,1.70
2024-02-12T14:16:02.054Z,1.95
2024-02-12T14:18:11.444Z,1.70
2024-02-12T14:20:39.039Z,2.10
2024-02-12T14:23:07.322Z,1.65
2024-02-12T14:25:35.373Z,2.20
2024-02-12T14:28:04.365Z,2.00
2024-02-12T14:30:32.902Z,2.20
2024-02-12T14:33:00.259Z,2.00
2024-02-12T14:35:27.452Z,1.70
2024-02-12T14:37:57.677Z,2.30
2024-02-12T14:40:25.094Z,2.40
2024-02-12T14:42:52.331Z,1.80
2024-02-12T14:45:23.076Z,1.58
2024-02-12T14:47:50.832Z,1.52
2024-02-12T14:50:20.017Z,1.60
2024-02-12T14:52:47.505Z,1.50
2024-02-12T14:55:15.935Z,1.42
2024-02-12T14:57:43.540Z,2.00
2024-02-12T15:00:15.486Z,1.45
2024-02-12T15:02:48.320Z,1.98
2024-02-12T15:05:16.694Z,1.60
2024-02-12T15:07:52.477Z,1.67
2024-02-12T15:10:25.760Z,1.58
2024-02-12T15:12:54.392Z,2.10
2024-02-12T15:15:22.337Z,1.67
2024-02-12T15:17:54.761Z,1.83
2024-02-12T15:20:23.533Z,1.53
2024-02-12T15:22:51.846Z,1.55
2024-02-12T15:25:21.328Z,1.42
2024-02-12T15:27:50.374Z,1.38
2024-02-12T15:30:21.271Z,1.60
2024-02-12T15:32:52.245Z,1.63
2024-02-12T15:35:20.226Z,1.45
2024-02-12T15:37:48.131Z,2.00
2024-02-12T15:40:23.649Z,2.08
2024-02-12T15:42:54.311Z,2.30
2024-02-12T15:45:26.369Z,1.45
2024-02-12T15:47:58.353Z,1.45
2024-02-12T15:50:27.424Z,1.58
2024-02-12T15:52:56.516Z,1.55
2024-02-12T15:55:24.830Z,1.75
2024-02-12T15:57:52.874Z,1.70
2024-02-12T16:00:24.469Z,2.17
2024-02-12T16:02:55.274Z,1.48
2024-02-12T16:06:02.760Z,2.05
2024-02-12T16:08:31.039Z,1.98
2024-02-12T16:11:01.271Z,1.70
2024-02-12T16:13:28.741Z,1.80
2024-02-12T16:15:58.029Z,2.20
2024-02-12T16:18:26.012Z,2.70
2024-02-12T16:20:53.316Z,4.05
2024-02-12T16:23:22.251Z,4.15
2024-02-12T16:25:49.563Z,3.15
2024-02-12T16:28:16.736Z,2.15
2024-02-12T16:30:45.135Z,2.00
2024-02-12T16:33:13.172Z,2.00
2024-02-12T16:35:40.548Z,1.92
2024-02-12T16:38:07.855Z,2.05
2024-02-12T16:40:35.033Z,2.42
2024-02-12T16:43:03.641Z,2.00
2024-02-12T16:45:31.998Z,1.90
2024-02-12T16:47:59.525Z,2.25
2024-02-12T16:50:26.904Z,2.10
2024-02-12T16:52:54.615Z,2.80
2024-02-12T16:55:22.017Z,1.95
2024-02-12T16:57:50.450Z,2.78
2024-02-12T17:00:19.444Z,2.38
2024-02-12T17:02:46.710Z,2.30
2024-02-12T17:05:14.421Z,2.22
2024-02-12T17:07:53.082Z,1.70
2024-02-12T17:10:28.915Z,1.80
2024-02-12T17:12:56.802Z,1.83
2024-02-12T17:15:25.330Z,1.58
2024-02-12T17:17:55.816Z,1.70
2024-02-12T17:20:23.106Z,1.52
2024-02-12T17:22:50.767Z,1.67
2024-02-12T17:25:19.120Z,1.52
2024-02-12T17:27:46.443Z,1.83
2024-02-12T17:30:15.808Z,2.22
2024-02-12T17:32:43.463Z,1.40
2024-02-12T17:35:13.816Z,1.42
2024-02-12T17:37:43.215Z,1.60
2024-02-12T17:40:12.620Z,1.90
2024-02-12T17:42:39.960Z,1.98
2024-02-12T17:45:11.438Z,1.50
2024-02-12T17:47:42.256Z,1.90
2024-02-12T17:50:11.284Z,2.10
2024-02-12T17:52:38.589Z,2.03
2024-02-12T17:55:05.983Z,2.10
2024-02-12T17:57:33.826Z,2.15
2024-02-12T18:00:01.668Z,2.38
2024-02-12T18:02:29.124Z,2.40
2024-02-12T18:04:59.324Z,2.20
2024-02-12T18:07:26.742Z,1.95
2024-02-12T18:09:58.756Z,2.58
2024-02-12T18:12:26.192Z,2.50
2024-02-12T18:14:53.249Z,2.55
2024-02-12T18:17:25.390Z,1.88
2024-02-12T18:19:53.909Z,2.40
2024-02-12T18:22:25.485Z,2.60
2024-02-12T18:24:52.607Z,2.42
2024-02-12T18:27:19.907Z,2.63
2024-02-12T18:29:47.102Z,2.88
2024-02-12T18:32:14.522Z,2.70
2024-02-12T18:34:43.128Z,3.20
2024-02-12T18:37:11.042Z,2.55
2024-02-12T18:39:41.873Z,2.97
2024-02-12T18:42:09.171Z,3.20
2024-02-12T18:44:39.323Z,3.50
2024-02-12T18:47:06.729Z,3.03
2024-02-12T18:49:34.388Z,2.95
2024-02-12T18:52:01.635Z,3.15
2024-02-12T18:54:32.595Z,3.20
2024-02-12T18:56:59.684Z,3.25
2024-02-12T18:59:26.709Z,3.25
2024-02-12T19:01:55.819Z,3.47
2024-02-12T19:04:23.155Z,3.67
2024-02-12T19:06:50.670Z,3.38
2024-02-12T19:09:18.890Z,3.70
2024-02-12T19:11:46.317Z,5.28
2024-02-12T19:14:13.656Z,4.13
2024-02-12T19:16:40.703Z,3.95
2024-02-12T19:19:08.096Z,4.10
2024-02-12T19:21:35.269Z,4.35
2024-02-12T19:24:07.491Z,4.07
2024-02-12T19:26:35.272Z,4.25
2024-02-12T19:29:03.174Z,5.82
2024-02-12T19:31:32.695Z,5.78
2024-02-12T19:34:00.222Z,7.00
2024-02-12T19:36:28.300Z,6.28
2024-02-12T19:38:56.234Z,6.43
2024-02-12T19:41:28.093Z,6.25
2024-02-12T19:43:55.129Z,6.25
2024-02-12T19:46:22.525Z,5.80
2024-02-12T19:48:53.680Z,6.20
2024-02-12T19:51:21.217Z,6.18
2024-02-12T19:53:48.297Z,6.20
2024-02-12T19:56:15.492Z,6.82
2024-02-12T19:58:44.151Z,6.18
2024-02-12T20:01:11.482Z,5.72
2024-02-12T20:03:39.112Z,6.13
2024-02-12T20:06:08.850Z,6.10
2024-02-12T20:08:36.138Z,5.70
2024-02-12T20:11:05.401Z,6.18
2024-02-12T20:13:33.442Z,5.40
2024-02-12T20:16:00.590Z,6.05
2024-02-12T20:18:28.046Z,6.07
2024-02-12T20:20:55.828Z,6.22
2024-02-12T20:23:23.059Z,5.47
2024-02-12T20:25:51.358Z,5.80
2024-02-12T20:28:18.358Z,5.55
2024-02-12T20:30:45.598Z,5.95
2024-02-12T20:33:12.816Z,5.78
2024-02-12T20:35:39.977Z,6.38
2024-02-12T20:38:07.094Z,6.15
2024-02-12T20:40:34.449Z,5.55
2024-02-12T20:43:01.857Z,5.43
2024-02-12T20:45:29.114Z,5.43
2024-02-12T20:47:56.907Z,5.25
2024-02-12T20:50:26.217Z,5.57
2024-02-12T20:52:53.321Z,5.10
2024-02-12T20:55:20.846Z,5.30
2024-02-12T20:57:47.982Z,5.70
2024-02-12T21:00:16.592Z,4.75
2024-02-12T21:02:44.041Z,5.22
2024-02-12T21:05:12.451Z,5.22
2024-02-12T21:07:40.103Z,5.13
2024-02-12T21:10:07.800Z,5.97
2024-02-12T21:12:35.025Z,6.00
2024-02-12T21:15:02.115Z,5.32
2024-02-12T21:17:29.242Z,5.68
2024-02-12T21:19:56.681Z,5.15
2024-02-12T21:22:24.416Z,5.45
2024-02-12T21:24:51.609Z,4.95
2024-02-12T21:27:19.144Z,5.30
2024-02-12T21:29:47.942Z,5.50
2024-02-12T21:32:16.062Z,5.30
2024-02-12T21:34:43.920Z,5.97
2024-02-12T21:37:12.413Z,5.40
2024-02-12T21:39:47.019Z,5.80
2024-02-12T21:42:28.489Z,6.22
2024-02-12T21:44:58.178Z,6.45
2024-02-12T21:47:26.514Z,6.00
2024-02-12T21:49:54.035Z,6.57
2024-02-12T21:52:22.009Z,5.68
2024-02-12T21:54:51.407Z,6.45
2024-02-12T21:57:28.243Z,5.30
2024-02-12T21:59:55.845Z,5.97
2024-02-12T22:02:23.531Z,5.80
2024-02-12T22:04:54.557Z,5.60
2024-02-12T22:07:22.395Z,6.13
2024-02-12T22:09:49.883Z,6.05
2024-02-12T22:12:17.554Z,6.03
2024-02-12T22:14:45.465Z,6.38
2024-02-12T22:17:13.638Z,6.45
2024-02-12T22:19:41.351Z,5.85
2024-02-12T22:22:08.819Z,6.47
2024-02-12T22:24:36.218Z,5.53
2024-02-12T22:27:05.497Z,6.03
2024-02-12T22:29:32.777Z,5.85
2024-02-12T22:32:00.041Z,6.57
2024-02-12T22:34:27.270Z,6.03
2024-02-12T22:36:54.537Z,6.75
2024-02-12T22:39:21.522Z,7.18
2024-02-12T22:41:48.972Z,6.28
2024-02-12T22:44:17.142Z,7.47
2024-02-12T22:46:45.670Z,6.65
2024-02-12T22:49:12.779Z,6.72
2024-02-12T22:51:40.017Z,7.07
2024-02-12T22:54:07.377Z,7.18
2024-02-12T22:56:34.465Z,6.50
2024-02-12T22:59:02.865Z,7.15
2024-02-12T23:01:30.110Z,6.38
2024-02-12T23:03:58.006Z,6.68
2024-02-12T23:06:25.060Z,6.85
2024-02-12T23:08:52.256Z,6.65
2024-02-12T23:11:20.756Z,6.88
2024-02-12T23:13:47.857Z,6.90
2024-02-12T23:16:16.480Z,6.18
2024-02-12T23:18:43.632Z,6.55
2024-02-12T23:21:11.528Z,6.93
2024-02-12T23:23:38.686Z,7.32
2024-02-12T23:26:05.864Z,7.68
2024-02-12T23:28:37.297Z,7.35
2024-02-12T23:31:07.714Z,7.65
2024-02-12T23:33:35.496Z,7.85
2024-02-12T23:36:06.918Z,6.93
2024-02-12T23:38:37.092Z,7.65
2024-02-12T23:41:04.512Z,7.28
2024-02-12T23:43:31.725Z,7.50
2024-02-12T23:45:58.856Z,7.72
2024-02-12T23:48:26.332Z,8.35
2024-02-12T23:50:53.642Z,7.88
2024-02-12T23:53:20.768Z,8.43
2024-02-12T23:55:48.025Z,8.80
2024-02-12T23:58:15.111Z,9.30
